Time;durP1;ratioP1;P1;durP2;ratioP2;P2;SDS_P1;SDS_P2;PMS_P1;PMS_P2;Temp;Humidity;BMP_temperature;BMP_pressure;BME280_temperature;BME280_humidity;BME280_pressure;Samples;Min_cycle;Max_cycle;Signal;HPM_P1;HPM_P2
2021/12/29 00:02:24;;;;;;;22.20;11.00;;;;;;;;;;5068363;28;20055;-73
2021/12/29 00:04:50;;;;;;;20.43;9.60;;;;;;;;;;5068655;28;20024;-74
2021/12/29 00:07:16;;;;;;;18.97;9.67;;;;;;;;;;5068639;28;20024;-75
2021/12/29 00:09:41;;;;;;;19.33;9.87;;;;;;;;;;5068356;28;20028;-74
2021/12/29 00:12:08;;;;;;;20.43;9.77;;;;;;;;;;5068457;28;20058;-74
2021/12/29 00:14:34;;;;;;;20.33;9.37;;;;;;;;;;5067858;28;20032;-74
2021/12/29 00:17:00;;;;;;;15.67;8.03;;;;;;;;;;5068647;28;20039;-73
2021/12/29 00:19:26;;;;;;;17.90;9.37;;;;;;;;;;5069319;28;20275;-75
2021/12/29 00:21:51;;;;;;;14.07;8.47;;;;;;;;;;5069585;28;20039;-74
2021/12/29 00:24:17;;;;;;;17.43;9.00;;;;;;;;;;5068377;28;20020;-78
2021/12/29 00:26:43;;;;;;;16.83;8.67;;;;;;;;;;5068551;28;20048;-76
2021/12/29 00:29:08;;;;;;;18.57;8.90;;;;;;;;;;5070378;28;20086;-77
2021/12/29 00:31:34;;;;;;;22.70;10.20;;;;;;;;;;5072111;28;20293;-78
2021/12/29 00:34:01;;;;;;;17.87;8.83;;;;;;;;;;5068499;28;20036;-76
2021/12/29 00:36:27;;;;;;;15.93;8.17;;;;;;;;;;5069413;28;20047;-76
2021/12/29 00:38:53;;;;;;;21.43;9.80;;;;;;;;;;5069668;28;20115;-77
2021/12/29 00:41:20;;;;;;;16.80;9.30;;;;;;;;;;5068133;28;20465;-78
2021/12/29 00:43:46;;;;;;;15.70;8.83;;;;;;;;;;5068337;28;20044;-77
2021/12/29 00:46:13;;;;;;;24.37;9.27;;;;;;;;;;5068705;28;20366;-76
2021/12/29 00:48:42;;;;;;;20.37;9.73;;;;;;;;;;5070852;28;20078;-76
2021/12/29 00:51:09;;;;;;;23.37;10.27;;;;;;;;;;5069185;28;20025;-78
2021/12/29 00:53:36;;;;;;;18.43;9.67;;;;;;;;;;5069961;28;20028;-78
2021/12/29 00:56:02;;;;;;;16.33;8.87;;;;;;;;;;5054825;28;20048;-78
2021/12/29 00:58:29;;;;;;;17.03;9.60;;;;;;;;;;5071104;28;20782;-77
2021/12/29 01:00:55;;;;;;;20.43;10.33;;;;;;;;;;5071115;28;20032;-78
2021/12/29 01:03:21;;;;;;;16.93;9.33;;;;;;;;;;5071698;28;20024;-78
2021/12/29 01:05:47;;;;;;;22.03;10.40;;;;;;;;;;5055209;28;20181;-77
2021/12/29 01:08:12;;;;;;;17.37;9.13;;;;;;;;;;5067856;28;20040;-76
2021/12/29 01:10:41;;;;;;;21.60;9.90;;;;;;;;;;5067767;28;20033;-77
2021/12/29 01:13:09;;;;;;;23.57;9.40;;;;;;;;;;5068891;28;20040;-77
2021/12/29 01:15:56;;;;;;;18.50;8.80;;;;;;;;;;5069019;28;20119;-76
2021/12/29 01:18:23;;;;;;;24.80;10.30;;;;;;;;;;5066867;28;20090;-76
2021/12/29 01:20:48;;;;;;;17.67;9.00;;;;;;;;;;5069347;28;20036;-77
2021/12/29 01:23:14;;;;;;;21.33;10.97;;;;;;;;;;5068519;28;20039;-77
2021/12/29 01:25:39;;;;;;;18.40;9.97;;;;;;;;;;5069192;28;20028;-75
2021/12/29 01:28:05;;;;;;;19.10;10.43;;;;;;;;;;5067485;28;20115;-76
2021/12/29 01:30:30;;;;;;;20.10;9.30;;;;;;;;;;5068217;28;20451;-77
2021/12/29 01:32:56;;;;;;;18.80;8.53;;;;;;;;;;5067962;28;20484;-78
2021/12/29 01:35:21;;;;;;;16.60;9.27;;;;;;;;;;5068566;28;20050;-77
2021/12/29 01:37:47;;;;;;;17.87;9.10;;;;;;;;;;5067471;28;20079;-77
2021/12/29 01:40:17;;;;;;;18.60;8.93;;;;;;;;;;5068784;28;20032;-77
2021/12/29 01:42:43;;;;;;;21.47;9.33;;;;;;;;;;5069117;28;20028;-77
2021/12/29 01:45:09;;;;;;;15.47;9.40;;;;;;;;;;5068479;28;20024;-77
2021/12/29 01:47:35;;;;;;;18.73;8.70;;;;;;;;;;5067424;28;20036;-76
2021/12/29 01:50:02;;;;;;;16.50;9.43;;;;;;;;;;5066758;28;20366;-76
2021/12/29 01:52:34;;;;;;;14.50;8.63;;;;;;;;;;5068468;28;20029;-77
2021/12/29 01:54:59;;;;;;;18.65;8.98;;;;;;;;;;5051679;28;20032;-76
2021/12/29 01:57:25;;;;;;;19.40;9.20;;;;;;;;;;5068991;28;20032;-76
2021/12/29 01:59:50;;;;;;;16.47;8.63;;;;;;;;;;5070269;28;20063;-76
2021/12/29 02:02:16;;;;;;;22.57;10.17;;;;;;;;;;5070847;28;20491;-75
2021/12/29 02:04:44;;;;;;;17.07;8.57;;;;;;;;;;5072184;28;20081;-75
2021/12/29 02:07:10;;;;;;;18.63;9.47;;;;;;;;;;5070294;28;20028;-76
2021/12/29 02:09:36;;;;;;;19.53;8.50;;;;;;;;;;5072127;28;20039;-76
2021/12/29 02:12:03;;;;;;;17.43;8.47;;;;;;;;;;5071974;28;20470;-77
2021/12/29 02:14:28;;;;;;;18.87;8.37;;;;;;;;;;5072922;28;20051;-78
2021/12/29 02:16:54;;;;;;;18.00;8.63;;;;;;;;;;5070767;28;20100;-76
2021/12/29 02:19:20;;;;;;;17.17;8.17;;;;;;;;;;5071439;28;20024;-76
2021/12/29 02:21:56;;;;;;;14.90;8.27;;;;;;;;;;5071867;28;20158;-74
2021/12/29 02:24:33;;;;;;;15.20;7.60;;;;;;;;;;5069895;28;20052;-77
2021/12/29 02:27:01;;;;;;;19.57;8.73;;;;;;;;;;5065989;28;20024;-76
2021/12/29 02:29:27;;;;;;;17.17;8.60;;;;;;;;;;5069633;28;20458;-76
2021/12/29 02:31:52;;;;;;;21.57;9.30;;;;;;;;;;5070075;28;20032;-77
2021/12/29 02:34:18;;;;;;;18.90;8.53;;;;;;;;;;5071473;28;20102;-76
2021/12/29 02:36:45;;;;;;;15.97;8.17;;;;;;;;;;5071598;28;20039;-76
2021/12/29 02:39:18;;;;;;;15.07;8.73;;;;;;;;;;5069613;28;20059;-72
2021/12/29 02:41:49;;;;;;;17.63;8.30;;;;;;;;;;5071690;28;20024;-75
2021/12/29 02:44:20;;;;;;;21.13;8.53;;;;;;;;;;5071599;28;20388;-78
2021/12/29 02:46:45;;;;;;;17.97;8.60;;;;;;;;;;5070553;28;20016;-74
2021/12/29 02:49:11;;;;;;;19.93;7.67;;;;;;;;;;5070658;28;20039;-76
2021/12/29 02:51:37;;;;;;;16.97;7.60;;;;;;;;;;5071017;28;20024;-74
2021/12/29 02:54:03;;;;;;;18.50;7.83;;;;;;;;;;5072273;28;20488;-76
2021/12/29 02:56:29;;;;;;;18.97;9.20;;;;;;;;;;5073024;28;20062;-77
2021/12/29 02:58:56;;;;;;;21.57;8.30;;;;;;;;;;5069577;28;20032;-77
2021/12/29 03:01:22;;;;;;;15.90;7.93;;;;;;;;;;5071342;28;20063;-77
2021/12/29 03:03:48;;;;;;;20.27;7.70;;;;;;;;;;5070589;28;20483;-77
2021/12/29 03:06:13;;;;;;;22.00;8.80;;;;;;;;;;5071508;28;20028;-77
2021/12/29 03:08:40;;;;;;;16.83;8.27;;;;;;;;;;5068444;28;20038;-77
2021/12/29 03:11:06;;;;;;;16.47;8.17;;;;;;;;;;5072194;28;20078;-75
2021/12/29 03:13:34;;;;;;;17.50;8.77;;;;;;;;;;5071260;28;20024;-77
2021/12/29 03:16:00;;;;;;;16.90;8.47;;;;;;;;;;5069358;28;20032;-77
2021/12/29 03:18:26;;;;;;;21.40;8.67;;;;;;;;;;5069033;28;20365;-78
2021/12/29 03:20:52;;;;;;;23.67;9.00;;;;;;;;;;5069539;28;20081;-76
2021/12/29 03:23:18;;;;;;;19.47;9.03;;;;;;;;;;5070739;28;20078;-77
2021/12/29 03:25:47;;;;;;;18.43;8.77;;;;;;;;;;5070245;28;20060;-78
2021/12/29 03:28:13;;;;;;;21.33;9.57;;;;;;;;;;5070195;28;20111;-76
2021/12/29 03:30:44;;;;;;;22.17;9.50;;;;;;;;;;5069031;28;20024;-77
2021/12/29 03:33:10;;;;;;;19.87;8.87;;;;;;;;;;5068977;28;20020;-77
2021/12/29 03:35:51;;;;;;;19.57;8.60;;;;;;;;;;5069918;28;20063;-77
2021/12/29 03:38:22;;;;;;;13.73;8.02;;;;;;;;;;5071566;28;20605;-77
2021/12/29 03:40:48;;;;;;;20.80;8.83;;;;;;;;;;5068570;28;20395;-79
2021/12/29 03:43:14;;;;;;;23.57;9.43;;;;;;;;;;5071939;28;20502;-76
2021/12/29 03:45:42;;;;;;;18.07;8.73;;;;;;;;;;5074287;28;20032;-77
2021/12/29 03:48:09;;;;;;;15.13;8.20;;;;;;;;;;5076244;28;20169;-75
2021/12/29 03:50:36;;;;;;;20.60;7.73;;;;;;;;;;5078076;28;20026;-76
2021/12/29 03:53:02;;;;;;;20.13;8.90;;;;;;;;;;5081109;28;20034;-76
2021/12/29 03:55:28;;;;;;;19.70;8.87;;;;;;;;;;5068819;28;20028;-77
2021/12/29 03:57:53;;;;;;;21.63;9.07;;;;;;;;;;5070108;28;20401;-76
2021/12/29 04:00:20;;;;;;;17.33;9.43;;;;;;;;;;5067654;28;20036;-76
2021/12/29 04:02:47;;;;;;;18.23;8.70;;;;;;;;;;5069849;28;20071;-76
2021/12/29 04:05:17;;;;;;;17.50;8.57;;;;;;;;;;5068280;28;20028;-75
2021/12/29 04:07:42;;;;;;;17.17;8.23;;;;;;;;;;5069257;28;20651;-77
2021/12/29 04:10:09;;;;;;;19.37;8.30;;;;;;;;;;5067595;28;20054;-76
2021/12/29 04:12:35;;;;;;;17.20;8.27;;;;;;;;;;5069444;28;20021;-77
2021/12/29 04:15:02;;;;;;;18.63;8.67;;;;;;;;;;5067951;28;20111;-78
2021/12/29 04:17:36;;;;;;;18.40;9.07;;;;;;;;;;5067707;28;20037;-77
2021/12/29 04:22:49;;;;;;;13.93;7.87;;;;;;;;;;5066550;28;20071;-75
2021/12/29 04:25:14;;;;;;;20.40;9.43;;;;;;;;;;5069665;28;20509;-76
2021/12/29 04:27:40;;;;;;;16.30;8.87;;;;;;;;;;5069329;28;20035;-76
2021/12/29 04:30:06;;;;;;;22.80;9.60;;;;;;;;;;5067811;28;20350;-76
2021/12/29 04:32:32;;;;;;;19.10;8.60;;;;;;;;;;5069439;28;20020;-77
2021/12/29 04:34:57;;;;;;;15.20;8.50;;;;;;;;;;5069234;28;20131;-77
2021/12/29 04:37:23;;;;;;;21.53;10.57;;;;;;;;;;5067968;28;20033;-76
2021/12/29 04:39:48;;;;;;;24.60;8.43;;;;;;;;;;5068605;28;20387;-76
2021/12/29 04:42:14;;;;;;;16.40;8.43;;;;;;;;;;5067496;28;20033;-77
2021/12/29 04:44:39;;;;;;;19.50;8.70;;;;;;;;;;5067713;28;20032;-77
2021/12/29 04:47:07;;;;;;;21.03;10.03;;;;;;;;;;5069394;28;20028;-75
2021/12/29 04:49:40;;;;;;;17.27;8.83;;;;;;;;;;5068911;28;20028;-77
2021/12/29 04:52:07;;;;;;;19.60;9.27;;;;;;;;;;5067990;28;20112;-78
2021/12/29 04:54:34;;;;;;;17.50;8.73;;;;;;;;;;5067727;28;20111;-75
2021/12/29 04:57:01;;;;;;;26.70;11.60;;;;;;;;;;5067983;28;20431;-77
2021/12/29 04:59:27;;;;;;;20.47;9.10;;;;;;;;;;5068196;28;20028;-76
2021/12/29 05:01:53;;;;;;;21.87;8.30;;;;;;;;;;5067201;28;20031;-78
2021/12/29 05:04:44;;;;;;;19.47;8.93;;;;;;;;;;5067545;28;20028;-74
2021/12/29 05:09:54;;;;;;;15.87;8.30;;;;;;;;;;5068308;28;20036;-76
2021/12/29 05:12:19;;;;;;;17.57;8.60;;;;;;;;;;5068994;28;20020;-73
2021/12/29 05:14:45;;;;;;;17.40;7.90;;;;;;;;;;5068995;28;20029;-77
2021/12/29 05:17:10;;;;;;;18.10;8.97;;;;;;;;;;5068973;28;20028;-78
2021/12/29 05:19:36;;;;;;;21.97;9.30;;;;;;;;;;5067758;28;20430;-76
2021/12/29 05:22:03;;;;;;;19.07;8.93;;;;;;;;;;5067897;28;20032;-74
2021/12/29 05:24:28;;;;;;;24.73;9.50;;;;;;;;;;5067308;28;20554;-73
2021/12/29 05:26:54;;;;;;;19.40;9.43;;;;;;;;;;5068861;28;20052;-72
2021/12/29 05:29:21;;;;;;;21.50;9.27;;;;;;;;;;5068073;28;20028;-73
2021/12/29 05:31:47;;;;;;;20.50;9.33;;;;;;;;;;5069411;28;20040;-73
2021/12/29 05:34:13;;;;;;;24.67;10.43;;;;;;;;;;5072260;28;20440;-73
2021/12/29 05:36:38;;;;;;;21.10;9.57;;;;;;;;;;5073018;28;20036;-74
2021/12/29 05:39:05;;;;;;;21.43;10.30;;;;;;;;;;5072623;28;20502;-74
2021/12/29 05:41:30;;;;;;;29.07;10.77;;;;;;;;;;5070704;28;20032;-73
2021/12/29 05:43:56;;;;;;;25.43;11.33;;;;;;;;;;5072611;28;20135;-74
2021/12/29 05:46:22;;;;;;;27.93;14.80;;;;;;;;;;5071319;28;20499;-72
2021/12/29 05:48:49;;;;;;;33.47;15.57;;;;;;;;;;5071680;28;20046;-75
2021/12/29 05:51:15;;;;;;;29.17;14.67;;;;;;;;;;5072423;28;20025;-73
2021/12/29 05:53:41;;;;;;;29.23;13.10;;;;;;;;;;5072072;28;20047;-73
2021/12/29 05:56:08;;;;;;;29.00;14.03;;;;;;;;;;5070798;28;20028;-73
2021/12/29 05:58:35;;;;;;;29.27;13.70;;;;;;;;;;5071744;28;20175;-73
2021/12/29 06:01:01;;;;;;;29.00;14.50;;;;;;;;;;5070453;28;20043;-73
2021/12/29 06:03:26;;;;;;;35.60;14.23;;;;;;;;;;5071953;28;20487;-74
2021/12/29 06:05:52;;;;;;;37.33;15.27;;;;;;;;;;5072136;28;20040;-73
2021/12/29 06:08:18;;;;;;;32.87;16.27;;;;;;;;;;5071870;28;20035;-72
2021/12/29 06:10:43;;;;;;;36.43;15.00;;;;;;;;;;5070136;28;20035;-73
2021/12/29 06:13:09;;;;;;;40.63;17.47;;;;;;;;;;5070710;28;20123;-73
2021/12/29 06:15:35;;;;;;;33.27;14.90;;;;;;;;;;5071879;28;20426;-73
2021/12/29 06:18:00;;;;;;;38.47;16.50;;;;;;;;;;5070013;28;20040;-74
2021/12/29 06:20:26;;;;;;;31.30;15.47;;;;;;;;;;5069742;28;20028;-73
2021/12/29 06:22:52;;;;;;;33.90;15.17;;;;;;;;;;5071742;28;20115;-73
2021/12/29 06:25:18;;;;;;;35.80;15.50;;;;;;;;;;5072162;28;20475;-73
2021/12/29 06:27:44;;;;;;;25.50;12.53;;;;;;;;;;5069867;28;20534;-73
2021/12/29 06:30:13;;;;;;;29.40;13.90;;;;;;;;;;5071308;28;20052;-73
2021/12/29 06:32:39;;;;;;;35.90;15.70;;;;;;;;;;5071458;28;20028;-73
2021/12/29 06:35:06;;;;;;;31.23;14.50;;;;;;;;;;5072528;28;20044;-73
2021/12/29 06:37:32;;;;;;;30.77;14.93;;;;;;;;;;5072740;28;20028;-73
2021/12/29 06:39:58;;;;;;;36.23;15.47;;;;;;;;;;5071360;28;20039;-72
2021/12/29 06:42:24;;;;;;;34.90;16.20;;;;;;;;;;5072422;28;20439;-73
2021/12/29 06:44:49;;;;;;;29.60;13.30;;;;;;;;;;5071124;28;20028;-73
2021/12/29 06:47:16;;;;;;;31.97;15.00;;;;;;;;;;5071580;28;20084;-74
2021/12/29 06:49:42;;;;;;;35.40;14.37;;;;;;;;;;5070346;28;20115;-74
2021/12/29 06:52:08;;;;;;;39.40;15.17;;;;;;;;;;5069901;28;20111;-73
2021/12/29 06:54:35;;;;;;;40.10;14.87;;;;;;;;;;5053321;28;20033;-74
2021/12/29 06:57:02;;;;;;;33.57;13.97;;;;;;;;;;5069952;28;20031;-73
2021/12/29 06:59:28;;;;;;;31.97;14.17;;;;;;;;;;5070554;28;20028;-73
2021/12/29 07:01:54;;;;;;;37.63;15.03;;;;;;;;;;5070555;28;20090;-75
2021/12/29 07:04:19;;;;;;;32.93;14.07;;;;;;;;;;5053090;28;20487;-72
2021/12/29 07:06:45;;;;;;;32.63;14.80;;;;;;;;;;5070647;28;20108;-73
2021/12/29 07:09:11;;;;;;;36.97;13.70;;;;;;;;;;5064199;28;20041;-73
2021/12/29 07:11:38;;;;;;;29.57;13.63;;;;;;;;;;5077589;28;20329;-73
2021/12/29 07:14:05;;;;;;;35.83;15.40;;;;;;;;;;5067339;28;20032;-74
2021/12/29 07:16:32;;;;;;;30.07;13.53;;;;;;;;;;5070528;28;20064;-75
2021/12/29 07:18:57;;;;;;;31.23;14.27;;;;;;;;;;5067811;28;20039;-74
2021/12/29 07:21:23;;;;;;;32.17;13.27;;;;;;;;;;5070191;28;20028;-74
2021/12/29 07:23:50;;;;;;;28.67;13.23;;;;;;;;;;5068133;28;20084;-73
2021/12/29 07:26:16;;;;;;;31.83;13.73;;;;;;;;;;5052107;28;20036;-73
2021/12/29 07:28:41;;;;;;;31.13;14.07;;;;;;;;;;5069688;28;20487;-73
2021/12/29 07:31:07;;;;;;;26.87;12.33;;;;;;;;;;5070109;28;20107;-73
2021/12/29 07:33:33;;;;;;;28.10;13.20;;;;;;;;;;5069627;28;20070;-74
2021/12/29 07:35:59;;;;;;;34.97;14.77;;;;;;;;;;5069514;28;20059;-73
2021/12/29 07:38:25;;;;;;;29.80;13.20;;;;;;;;;;5069888;28;20040;-74
2021/12/29 07:40:51;;;;;;;31.00;13.40;;;;;;;;;;5069815;28;20032;-74
2021/12/29 07:43:18;;;;;;;31.67;13.00;;;;;;;;;;5069601;28;20029;-73
2021/12/29 07:45:44;;;;;;;26.63;12.50;;;;;;;;;;5068194;28;20066;-73
2021/12/29 07:48:10;;;;;;;27.37;13.13;;;;;;;;;;5069783;28;20043;-73
2021/12/29 07:50:37;;;;;;;31.30;13.70;;;;;;;;;;5066905;28;20498;-72
2021/12/29 07:53:03;;;;;;;32.40;14.13;;;;;;;;;;5066568;28;20029;-74
2021/12/29 07:55:29;;;;;;;27.73;13.37;;;;;;;;;;5070167;28;20037;-73
2021/12/29 07:57:57;;;;;;;29.17;13.97;;;;;;;;;;5070760;28;20165;-74
2021/12/29 08:00:23;;;;;;;31.17;13.30;;;;;;;;;;5069142;28;20055;-74
2021/12/29 08:02:51;;;;;;;29.10;13.97;;;;;;;;;;5068853;28;20203;-73
2021/12/29 08:05:16;;;;;;;29.57;14.77;;;;;;;;;;5068353;28;20028;-73
2021/12/29 08:07:42;;;;;;;28.53;14.10;;;;;;;;;;5069362;28;20035;-73
2021/12/29 08:10:08;;;;;;;29.00;12.50;;;;;;;;;;5070128;28;20518;-74
2021/12/29 08:12:33;;;;;;;29.87;13.43;;;;;;;;;;5068112;28;20197;-74
2021/12/29 08:14:59;;;;;;;31.47;14.60;;;;;;;;;;5069223;28;20440;-73
2021/12/29 08:17:24;;;;;;;33.53;14.47;;;;;;;;;;5067727;28;20037;-74
2021/12/29 08:19:50;;;;;;;41.20;17.37;;;;;;;;;;5067939;28;20119;-74
2021/12/29 08:22:17;;;;;;;31.17;13.93;;;;;;;;;;5068464;28;20507;-74
2021/12/29 08:24:43;;;;;;;31.30;14.17;;;;;;;;;;5066617;28;20123;-74
2021/12/29 08:27:10;;;;;;;33.53;15.73;;;;;;;;;;5065843;28;20082;-73
2021/12/29 08:29:35;;;;;;;32.80;14.57;;;;;;;;;;5066572;28;20063;-73
2021/12/29 08:32:01;;;;;;;35.13;15.40;;;;;;;;;;5067363;28;20077;-74
2021/12/29 08:34:28;;;;;;;29.43;13.53;;;;;;;;;;5066676;28;20094;-74
2021/12/29 08:36:53;;;;;;;31.07;13.83;;;;;;;;;;5066994;28;20098;-75
2021/12/29 08:39:19;;;;;;;35.70;14.63;;;;;;;;;;5066577;28;20251;-73
2021/12/29 08:41:46;;;;;;;30.43;14.37;;;;;;;;;;5067118;28;20024;-74
2021/12/29 08:44:12;;;;;;;35.03;15.03;;;;;;;;;;5067009;28;20047;-72
2021/12/29 08:46:38;;;;;;;29.73;14.33;;;;;;;;;;5070621;28;20094;-73
2021/12/29 08:49:03;;;;;;;30.17;14.67;;;;;;;;;;5068570;28;20127;-73
2021/12/29 08:51:29;;;;;;;24.23;11.90;;;;;;;;;;5068392;28;20059;-74
2021/12/29 08:53:56;;;;;;;38.10;16.27;;;;;;;;;;5068747;28;20348;-74
2021/12/29 08:56:22;;;;;;;36.47;14.43;;;;;;;;;;5069741;28;20142;-74
2021/12/29 08:58:49;;;;;;;31.63;14.17;;;;;;;;;;5066985;28;20040;-73
2021/12/29 09:01:14;;;;;;;31.43;14.93;;;;;;;;;;5068156;28;20037;-72
2021/12/29 09:03:41;;;;;;;32.77;14.70;;;;;;;;;;5067422;28;20027;-74
2021/12/29 09:06:07;;;;;;;31.73;14.90;;;;;;;;;;5067476;28;20028;-73
2021/12/29 09:08:32;;;;;;;37.40;16.67;;;;;;;;;;5065873;28;20523;-74
2021/12/29 09:10:58;;;;;;;34.83;16.33;;;;;;;;;;5066428;28;20043;-73
2021/12/29 09:13:24;;;;;;;37.53;16.63;;;;;;;;;;5066354;28;20039;-74
2021/12/29 09:15:53;;;;;;;31.30;14.60;;;;;;;;;;5067667;28;20032;-74
2021/12/29 09:18:19;;;;;;;31.67;15.33;;;;;;;;;;5067185;28;20537;-74
2021/12/29 09:20:46;;;;;;;39.17;15.27;;;;;;;;;;5066592;28;20032;-73
2021/12/29 09:23:13;;;;;;;32.03;16.30;;;;;;;;;;5066844;28;20036;-74
2021/12/29 09:25:41;;;;;;;38.60;17.30;;;;;;;;;;5067769;28;20029;-74
2021/12/29 09:28:10;;;;;;;34.97;16.33;;;;;;;;;;5066843;28;20468;-75
2021/12/29 09:30:42;;;;;;;31.47;14.53;;;;;;;;;;5066835;28;20483;-75
2021/12/29 09:33:08;;;;;;;40.97;15.80;;;;;;;;;;5066852;28;20365;-73
2021/12/29 09:35:34;;;;;;;60.43;29.53;;;;;;;;;;5066567;28;20048;-74
2021/12/29 09:38:00;;;;;;;37.67;17.77;;;;;;;;;;5068165;28;20037;-74
2021/12/29 09:40:26;;;;;;;32.33;16.03;;;;;;;;;;5066412;28;20353;-74
2021/12/29 09:42:54;;;;;;;31.33;14.17;;;;;;;;;;5067904;28;20035;-74
2021/12/29 09:45:24;;;;;;;37.60;16.07;;;;;;;;;;5066834;28;20029;-73
2021/12/29 09:47:50;;;;;;;29.33;15.33;;;;;;;;;;5067749;28;20043;-75
2021/12/29 09:50:18;;;;;;;33.73;16.13;;;;;;;;;;5066981;28;20025;-75
2021/12/29 09:52:44;;;;;;;32.43;16.37;;;;;;;;;;5067188;28;20511;-74
2021/12/29 09:55:14;;;;;;;36.63;16.53;;;;;;;;;;5066721;28;20035;-73
2021/12/29 09:57:45;;;;;;;30.27;15.87;;;;;;;;;;5065309;28;20025;-73
2021/12/29 10:00:20;;;;;;;36.87;15.50;;;;;;;;;;5064497;28;20335;-75
2021/12/29 10:02:47;;;;;;;30.70;15.10;;;;;;;;;;5068035;28;20426;-73
2021/12/29 10:05:13;;;;;;;30.50;15.30;;;;;;;;;;5067209;28;20543;-74
2021/12/29 10:07:40;;;;;;;37.30;17.83;;;;;;;;;;5066509;28;20059;-73
2021/12/29 10:10:20;;;;;;;35.77;16.73;;;;;;;;;;5065033;28;20027;-74
2021/12/29 10:12:46;;;;;;;38.40;17.57;;;;;;;;;;5066377;28;20467;-73
2021/12/29 10:15:13;;;;;;;41.20;19.43;;;;;;;;;;5066691;28;20075;-74
2021/12/29 10:17:39;;;;;;;32.53;16.30;;;;;;;;;;5049650;28;20041;-74
2021/12/29 10:20:08;;;;;;;31.93;15.30;;;;;;;;;;5069220;28;20317;-73
2021/12/29 10:22:34;;;;;;;32.63;15.57;;;;;;;;;;5067186;28;20040;-74
2021/12/29 10:25:13;;;;;;;35.83;16.70;;;;;;;;;;5068209;28;20388;-74
2021/12/29 10:27:40;;;;;;;29.03;15.53;;;;;;;;;;5068795;28;20029;-75
2021/12/29 10:30:25;;;;;;;33.57;16.67;;;;;;;;;;5068259;28;20491;-73
2021/12/29 10:32:51;;;;;;;31.67;16.93;;;;;;;;;;5070868;28;20052;-72
2021/12/29 10:35:27;;;;;;;31.00;15.27;;;;;;;;;;5070410;28;20049;-72
2021/12/29 10:37:54;;;;;;;31.57;16.43;;;;;;;;;;5086332;28;20055;-73
2021/12/29 10:40:31;;;;;;;30.77;16.03;;;;;;;;;;5064092;28;20035;-74
2021/12/29 10:43:00;;;;;;;33.50;15.97;;;;;;;;;;5068753;28;20035;-73
2021/12/29 10:45:38;;;;;;;35.23;17.60;;;;;;;;;;5067378;28;20036;-74
2021/12/29 10:48:28;;;;;;;39.83;17.60;;;;;;;;;;5068199;28;20039;-73
2021/12/29 10:50:55;;;;;;;33.87;16.77;;;;;;;;;;5068982;28;20032;-74
2021/12/29 10:53:21;;;;;;;38.20;17.17;;;;;;;;;;5071168;28;20028;-74
2021/12/29 10:55:47;;;;;;;37.23;17.63;;;;;;;;;;5069004;28;20111;-74
2021/12/29 10:58:16;;;;;;;35.60;16.43;;;;;;;;;;5069568;28;20914;-75
2021/12/29 11:01:06;;;;;;;34.40;16.90;;;;;;;;;;5069670;28;20025;-75
2021/12/29 11:03:34;;;;;;;36.93;15.83;;;;;;;;;;5068979;28;20043;-73
2021/12/29 11:06:02;;;;;;;32.33;16.80;;;;;;;;;;5069563;28;20036;-73
2021/12/29 11:08:32;;;;;;;36.47;16.27;;;;;;;;;;5070030;28;20098;-73
2021/12/29 11:11:04;;;;;;;39.43;18.87;;;;;;;;;;5071000;28;20024;-72
2021/12/29 11:13:32;;;;;;;33.03;17.80;;;;;;;;;;5069207;28;20038;-74
2021/12/29 11:15:59;;;;;;;36.43;18.17;;;;;;;;;;5069817;28;20032;-72
2021/12/29 11:18:25;;;;;;;39.53;17.33;;;;;;;;;;5069342;28;20048;-74
2021/12/29 11:20:58;;;;;;;42.37;19.60;;;;;;;;;;5070482;28;20067;-77
2021/12/29 11:23:24;;;;;;;40.90;17.00;;;;;;;;;;5086026;28;20475;-75
2021/12/29 11:25:52;;;;;;;36.30;15.90;;;;;;;;;;5069562;28;20093;-73
2021/12/29 11:28:30;;;;;;;38.43;16.27;;;;;;;;;;5068521;28;20032;-71
2021/12/29 11:30:59;;;;;;;29.10;15.17;;;;;;;;;;5066901;28;20115;-73
2021/12/29 11:33:30;;;;;;;34.40;15.97;;;;;;;;;;5068692;28;20114;-74
2021/12/29 11:35:56;;;;;;;37.10;20.47;;;;;;;;;;5069015;28;20076;-73
2021/12/29 11:38:23;;;;;;;31.20;16.47;;;;;;;;;;5068299;28;20052;-75
2021/12/29 11:40:52;;;;;;;27.83;15.47;;;;;;;;;;5069081;28;20506;-73
2021/12/29 11:43:22;;;;;;;29.93;15.43;;;;;;;;;;5068923;28;20053;-75
2021/12/29 11:45:50;;;;;;;31.47;14.67;;;;;;;;;;5050865;28;20132;-74
2021/12/29 11:48:21;;;;;;;33.13;14.97;;;;;;;;;;5067186;28;20343;-74
2021/12/29 11:50:50;;;;;;;31.83;13.50;;;;;;;;;;5067690;28;20278;-74
2021/12/29 11:53:30;;;;;;;31.10;14.40;;;;;;;;;;5069002;28;20025;-74
2021/12/29 11:56:06;;;;;;;32.63;15.90;;;;;;;;;;5065312;28;20040;-74
2021/12/29 11:58:41;;;;;;;29.20;14.27;;;;;;;;;;5062985;28;20032;-73
2021/12/29 12:01:14;;;;;;;23.93;13.77;;;;;;;;;;5066433;28;20122;-73
2021/12/29 12:03:42;;;;;;;28.87;13.73;;;;;;;;;;5063367;28;20033;-74
2021/12/29 12:06:22;;;;;;;27.67;14.97;;;;;;;;;;5068560;28;20051;-73
2021/12/29 12:08:59;;;;;;;30.20;15.40;;;;;;;;;;5065219;28;20043;-72
2021/12/29 12:11:28;;;;;;;34.57;16.13;;;;;;;;;;5067213;28;20032;-74
2021/12/29 12:13:54;;;;;;;32.40;15.17;;;;;;;;;;5068523;28;20043;-73
2021/12/29 12:16:21;;;;;;;31.40;16.80;;;;;;;;;;5066603;28;20028;-75
2021/12/29 12:18:57;;;;;;;27.67;14.40;;;;;;;;;;5066009;28;20385;-74
2021/12/29 12:21:24;;;;;;;39.47;18.03;;;;;;;;;;5067195;28;20035;-74
2021/12/29 12:23:50;;;;;;;27.77;15.10;;;;;;;;;;5068494;28;20106;-75
2021/12/29 12:26:20;;;;;;;24.37;13.90;;;;;;;;;;5066914;28;20590;-74
2021/12/29 12:28:48;;;;;;;26.80;14.10;;;;;;;;;;5065901;28;20028;-75
2021/12/29 12:31:31;;;;;;;25.13;13.53;;;;;;;;;;5068571;28;20036;-74
2021/12/29 12:34:13;;;;;;;30.13;15.23;;;;;;;;;;5066349;28;20064;-74
2021/12/29 12:36:39;;;;;;;;;;;;;;;;;;5051025;28;20113;-73
2021/12/29 12:39:14;;;;;;;29.00;14.63;;;;;;;;;;5067966;28;20167;-75
2021/12/29 12:41:53;;;;;;;23.67;13.27;;;;;;;;;;5066920;28;20060;-75
2021/12/29 12:44:35;;;;;;;31.40;16.27;;;;;;;;;;5067123;28;20036;-73
2021/12/29 12:47:13;;;;;;;23.50;13.48;;;;;;;;;;5051083;28;20039;-74
2021/12/29 12:49:51;;;;;;;27.77;15.27;;;;;;;;;;5068270;28;20487;-75
2021/12/29 12:52:19;;;;;;;28.90;13.30;;;;;;;;;;5064332;28;20017;-74
2021/12/29 12:54:44;;;;;;;30.50;13.90;;;;;;;;;;5068194;28;20036;-74
2021/12/29 12:57:11;;;;;;;32.83;14.93;;;;;;;;;;5067614;28;20081;-73
2021/12/29 12:59:41;;;;;;;22.30;13.40;;;;;;;;;;5070248;28;20027;-73
2021/12/29 13:02:21;;;;;;;24.50;13.30;;;;;;;;;;5064921;28;20087;-74
2021/12/29 13:05:05;;;;;;;26.77;14.77;;;;;;;;;;5068335;28;20024;-75
2021/12/29 13:07:31;;;;;;;29.67;15.17;;;;;;;;;;5066179;28;20318;-74
2021/12/29 13:09:59;;;;;;;31.73;15.50;;;;;;;;;;5066301;28;20032;-74
2021/12/29 13:12:30;;;;;;;33.53;16.70;;;;;;;;;;5068220;28;20070;-74
2021/12/29 13:15:03;;;;;;;32.78;18.08;;;;;;;;;;5062627;28;20058;-74
2021/12/29 13:17:29;;;;;;;30.77;15.37;;;;;;;;;;5067493;28;20290;-74
2021/12/29 13:19:56;;;;;;;33.47;16.00;;;;;;;;;;5066232;28;20024;-74
2021/12/29 13:22:33;;;;;;;28.23;14.60;;;;;;;;;;5050152;28;20492;-74
2021/12/29 13:25:19;;;;;;;25.63;14.37;;;;;;;;;;5066682;28;20021;-75
2021/12/29 13:28:01;;;;;;;21.83;12.87;;;;;;;;;;5067737;28;20091;-75
2021/12/29 13:30:39;;;;;;;33.87;14.57;;;;;;;;;;5062475;28;20036;-74
2021/12/29 13:33:05;;;;;;;30.53;15.83;;;;;;;;;;5066876;28;20036;-74
2021/12/29 13:35:36;;;;;;;30.87;17.33;;;;;;;;;;5067932;28;20086;-74
2021/12/29 13:38:07;;;;;;;38.13;20.35;;;;;;;;;;5067024;28;20471;-74
2021/12/29 13:40:41;;;;;;;38.40;18.67;;;;;;;;;;5066358;28;20029;-74
2021/12/29 13:43:13;;;;;;;39.27;20.70;;;;;;;;;;5067198;28;20129;-74
2021/12/29 13:45:39;;;;;;;40.25;22.00;;;;;;;;;;5066465;28;20083;-74
2021/12/29 13:48:05;;;;;;;34.80;20.00;;;;;;;;;;5067635;28;20332;-75
2021/12/29 13:50:32;;;;;;;36.83;17.17;;;;;;;;;;5068082;28;20052;-74
2021/12/29 13:53:08;;;;;;;31.70;17.03;;;;;;;;;;5068368;28;20111;-75
2021/12/29 13:55:37;;;;;;;37.77;18.50;;;;;;;;;;5070726;28;20115;-73
2021/12/29 13:58:04;;;;;;;42.30;20.60;;;;;;;;;;5065831;28;20467;-74
2021/12/29 14:00:31;;;;;;;29.00;13.87;;;;;;;;;;5068092;28;20139;-75
2021/12/29 14:02:58;;;;;;;29.23;13.10;;;;;;;;;;5071003;28;20033;-73
2021/12/29 14:05:44;;;;;;;25.63;13.47;;;;;;;;;;5070226;28;20032;-74
2021/12/29 14:08:14;;;;;;;25.40;13.30;;;;;;;;;;5062716;28;20031;-73
2021/12/29 14:10:40;;;;;;;26.10;12.43;;;;;;;;;;5066529;28;20028;-74
2021/12/29 14:13:13;;;;;;;23.17;12.43;;;;;;;;;;5070533;28;20523;-73
2021/12/29 14:15:40;;;;;;;23.90;12.40;;;;;;;;;;5067617;28;20417;-74
2021/12/29 14:18:20;;;;;;;26.87;12.30;;;;;;;;;;5069296;28;20024;-74
2021/12/29 14:20:52;;;;;;;25.07;12.70;;;;;;;;;;5071018;28;20038;-75
2021/12/29 14:23:18;;;;;;;;;;;;;;;;;;5053145;28;20032;-73
2021/12/29 14:25:46;;;;;;;21.93;9.33;;;;;;;;;;5071324;28;20007;-73
2021/12/29 14:28:17;;;;;;;22.27;10.90;;;;;;;;;;5069418;28;20029;-74
2021/12/29 14:30:44;;;;;;;19.55;9.95;;;;;;;;;;5063696;28;20025;-74
2021/12/29 14:33:11;;;;;;;20.57;8.80;;;;;;;;;;5070148;28;20451;-74
2021/12/29 14:35:48;;;;;;;14.63;8.67;;;;;;;;;;5070724;28;20047;-74